Time;durP1;ratioP1;P1;durP2;ratioP2;P2;SDS_P1;SDS_P2;PMS_P1;PMS_P2;Temp;Humidity;BMP_temperature;BMP_pressure;BME280_temperature;BME280_humidity;BME280_pressure;Samples;Min_cycle;Max_cycle;Signal;HPM_P1;HPM_P2
2022/03/12 00:00:47;;;;;;;49.60;27.30;;;;;;;-4.93;51.60;100510.73;104378;1270;1003663;-75
2022/03/12 00:03:15;;;;;;;47.90;27.20;;;;;;;-4.97;51.64;100509.77;105219;1270;62126;-74
2022/03/12 00:05:49;;;;;;;51.90;26.50;;;;;;;-5.01;51.71;100510.04;105236;1270;62055;-72
2022/03/12 00:08:16;;;;;;;46.80;25.80;;;;;;;-5.05;51.91;100505.80;104213;1270;1002987;-73
2022/03/12 00:10:44;;;;;;;49.20;26.10;;;;;;;-5.04;52.08;100500.78;105156;1270;69176;-73
2022/03/12 00:13:10;;;;;;;51.10;24.60;;;;;;;-5.03;52.46;100495.43;105235;1269;72591;-75
2022/03/12 00:15:37;;;;;;;51.90;26.40;;;;;;;-4.97;52.73;100485.69;105165;1270;62121;-74
2022/03/12 00:18:06;;;;;;;51.30;25.10;;;;;;;-4.90;52.54;100484.45;105233;1270;62338;-75
2022/03/12 00:20:33;;;;;;;44.70;26.10;;;;;;;-4.86;52.58;100483.64;105251;1270;77342;-74
2022/03/12 00:22:59;;;;;;;41.10;23.60;;;;;;;-4.82;52.54;100482.33;105260;1270;69140;-74
2022/03/12 00:25:26;;;;;;;47.80;25.40;;;;;;;-4.81;52.51;100487.20;104430;1270;1003196;-74
2022/03/12 00:27:53;;;;;;;50.20;25.90;;;;;;;-4.80;52.51;100481.15;105391;1270;62111;-74
2022/03/12 00:30:24;;;;;;;49.60;26.00;;;;;;;-4.80;52.42;100482.20;104863;1270;62119;-74
2022/03/12 00:32:51;;;;;;;50.70;23.90;;;;;;;-4.83;52.46;100481.80;105353;1270;77018;-73
2022/03/12 00:35:20;;;;;;;43.00;23.30;;;;;;;-4.88;52.51;100482.93;105222;1270;71138;-72
2022/03/12 00:37:47;;;;;;;45.70;22.70;;;;;;;-4.90;52.55;100481.31;105526;1270;73169;-73
2022/03/12 00:40:15;;;;;;;42.00;22.80;;;;;;;-4.96;52.67;100481.20;105149;1270;62183;-76
2022/03/12 00:42:43;;;;;;;52.80;24.00;;;;;;;-4.99;52.73;100480.96;104977;1270;62092;-75
2022/03/12 00:45:10;;;;;;;48.40;25.10;;;;;;;-5.04;52.86;100489.36;104985;1270;75130;-75
2022/03/12 00:47:37;;;;;;;46.50;23.40;;;;;;;-5.10;52.91;100481.61;105264;1270;69289;-73
2022/03/12 00:50:05;;;;;;;38.50;21.80;;;;;;;-5.15;53.15;100483.41;105243;1270;62072;-75
2022/03/12 00:52:31;;;;;;;49.10;24.70;;;;;;;-5.20;53.17;100486.95;105092;1270;190200;-75
2022/03/12 00:54:58;;;;;;;47.10;23.90;;;;;;;-5.25;53.35;100491.35;104964;1270;62241;-75
2022/03/12 00:57:25;;;;;;;45.50;23.70;;;;;;;-5.29;53.44;100485.55;104456;1270;1003072;-75
2022/03/12 00:59:52;;;;;;;46.70;23.90;;;;;;;-5.32;53.53;100482.90;105250;1270;69386;-73
2022/03/12 01:02:19;;;;;;;37.50;21.30;;;;;;;-5.29;53.80;100476.54;105236;1270;62180;-75
2022/03/12 01:04:46;;;;;;;40.20;21.90;;;;;;;-5.23;53.94;100469.05;105227;1270;62241;-75
2022/03/12 01:07:12;;;;;;;37.60;21.60;;;;;;;-5.19;53.96;100468.42;105253;1270;62172;-74
2022/03/12 01:09:40;;;;;;;46.20;21.70;;;;;;;-5.13;53.97;100471.16;104930;1270;62109;-73
2022/03/12 01:12:09;;;;;;;41.00;21.50;;;;;;;-5.07;54.03;100465.03;105227;1270;70288;-73
2022/03/12 01:14:38;;;;;;;38.80;20.70;;;;;;;-5.02;54.01;100468.77;105208;1270;71819;-74
2022/03/12 01:17:06;;;;;;;42.20;22.50;;;;;;;-4.98;54.03;100471.81;105182;1270;62156;-75
2022/03/12 01:19:37;;;;;;;40.10;21.20;;;;;;;-4.94;54.07;100474.15;105240;1270;62486;-74
2022/03/12 01:22:05;;;;;;;43.90;22.30;;;;;;;-4.89;53.96;100471.45;105223;1270;76317;-74
2022/03/12 01:24:32;;;;;;;42.20;23.60;;;;;;;-4.88;54.14;100473.38;105193;1270;69604;-75
2022/03/12 01:27:00;;;;;;;42.60;22.00;;;;;;;-4.86;54.07;100471.00;105207;1270;74256;-73
2022/03/12 01:29:26;;;;;;;42.50;21.70;;;;;;;-4.86;54.04;100466.31;105199;1270;62183;-74
2022/03/12 01:31:52;;;;;;;43.00;22.30;;;;;;;-4.85;54.22;100465.98;105221;1270;62066;-73
2022/03/12 01:34:19;;;;;;;44.70;22.80;;;;;;;-4.84;54.32;100464.11;105189;1270;62188;-73
2022/03/12 01:36:46;;;;;;;44.20;22.50;;;;;;;-4.83;54.27;100469.83;105222;1270;69340;-73
2022/03/12 01:39:12;;;;;;;45.50;22.00;;;;;;;-4.83;54.27;100466.71;105191;1270;62173;-73
2022/03/12 01:41:41;;;;;;;45.00;23.70;;;;;;;-4.85;54.21;100467.38;105204;1270;62140;-73
2022/03/12 01:44:09;;;;;;;42.00;23.20;;;;;;;-4.87;54.42;100464.57;105224;1270;62061;-73
2022/03/12 01:46:44;;;;;;;38.80;21.30;;;;;;;-4.87;54.53;100460.73;105200;1270;76238;-73
2022/03/12 01:49:19;;;;;;;44.10;22.60;;;;;;;-4.90;54.59;100461.91;105249;1270;70294;-73
2022/03/12 01:51:48;;;;;;;43.20;24.00;;;;;;;-4.92;54.64;100456.84;105339;1270;73326;-74
2022/03/12 01:54:21;;;;;;;42.20;20.50;;;;;;;-4.92;54.64;100458.59;105228;1270;62076;-73
2022/03/12 01:56:48;;;;;;;44.80;22.40;;;;;;;-4.90;54.75;100466.24;105207;1270;62144;-73
2022/03/12 01:59:15;;;;;;;38.50;21.70;;;;;;;-4.88;54.78;100466.96;105206;1270;77264;-73
2022/03/12 02:01:42;;;;;;;44.20;23.40;;;;;;;-4.87;54.82;100464.57;105240;1268;69438;-73
2022/03/12 02:04:09;;;;;;;39.00;21.50;;;;;;;-4.87;54.96;100458.34;105178;1270;72717;-73
2022/03/12 02:06:42;;;;;;;46.40;21.80;;;;;;;-4.86;54.86;100459.73;105214;1270;62096;-75
2022/03/12 02:09:14;;;;;;;43.60;23.00;;;;;;;-4.87;54.77;100453.48;105228;1270;62170;-74
2022/03/12 02:11:43;;;;;;;43.50;22.70;;;;;;;-4.87;54.94;100457.80;105327;1270;76980;-73
2022/03/12 02:14:10;;;;;;;42.80;21.90;;;;;;;-4.89;55.03;100453.61;105215;1270;69306;-73
2022/03/12 02:16:40;;;;;;;40.20;22.60;;;;;;;-4.90;55.06;100456.34;105218;1270;73291;-75
2022/03/12 02:19:07;;;;;;;41.70;22.50;;;;;;;-4.91;55.17;100451.48;105509;1270;62169;-73
2022/03/12 02:21:41;;;;;;;40.40;20.90;;;;;;;-4.93;55.30;100456.14;105190;1270;62181;-75
2022/03/12 02:24:10;;;;;;;43.20;22.70;;;;;;;-4.94;55.28;100456.27;105337;1270;76260;-75
2022/03/12 02:26:38;;;;;;;42.30;22.10;;;;;;;-4.97;55.50;100455.19;105285;1270;69158;-74
2022/03/12 02:29:12;;;;;;;39.30;21.20;;;;;;;-4.99;55.56;100456.17;105219;1270;74282;-73
2022/03/12 02:31:41;;;;;;;42.30;22.70;;;;;;;-5.03;55.58;100453.67;105219;1270;62183;-73
2022/03/12 02:34:09;;;;;;;45.70;22.60;;;;;;;-5.06;55.62;100451.00;105231;1270;62136;-73
2022/03/12 02:36:35;;;;;;;41.90;21.90;;;;;;;-5.09;55.67;100449.24;105198;1270;76096;-74
2022/03/12 02:39:04;;;;;;;40.10;20.50;;;;;;;-5.12;55.73;100447.45;105236;1270;68204;-73
2022/03/12 02:41:31;;;;;;;40.70;22.30;;;;;;;-5.13;55.97;100441.70;105237;1270;73434;-75
2022/03/12 02:43:58;;;;;;;40.40;21.60;;;;;;;-5.14;55.96;100442.38;104909;1270;62198;-74
2022/03/12 02:46:27;;;;;;;44.70;23.80;;;;;;;-5.17;56.07;100438.15;105001;1271;61990;-74
2022/03/12 02:48:56;;;;;;;46.30;24.30;;;;;;;-5.20;56.16;100435.34;105195;1270;77109;-74
2022/03/12 02:51:25;;;;;;;41.70;23.00;;;;;;;-5.21;56.31;100438.26;105262;1270;69384;-74
2022/03/12 02:53:56;;;;;;;39.60;21.20;;;;;;;-5.22;56.36;100436.84;105376;1270;74368;-73
2022/03/12 02:56:23;;;;;;;40.20;21.60;;;;;;;-5.22;56.41;100442.73;105010;1273;62180;-74
2022/03/12 02:58:51;;;;;;;40.80;22.60;;;;;;;-5.22;56.50;100441.70;105218;1270;62137;-74
2022/03/12 03:01:18;;;;;;;41.50;23.20;;;;;;;-5.23;56.62;100449.99;105121;1271;76079;-74
2022/03/12 03:03:46;;;;;;;41.60;23.40;;;;;;;-5.24;56.53;100451.18;105240;1270;69405;-73
2022/03/12 03:06:15;;;;;;;36.30;20.70;;;;;;;-5.23;56.62;100454.16;105025;1271;73100;-73
2022/03/12 03:08:43;;;;;;;41.60;23.30;;;;;;;-5.26;56.78;100450.95;105546;1270;62167;-74
2022/03/12 03:11:17;;;;;;;43.20;22.50;;;;;;;-5.27;56.80;100449.39;105319;1270;62175;-74
2022/03/12 03:13:44;;;;;;;42.80;22.40;;;;;;;-5.27;56.75;100445.40;105413;1269;76077;-73
2022/03/12 03:16:22;;;;;;;37.80;22.10;;;;;;;-5.26;56.89;100444.57;105955;1270;70347;-74
2022/03/12 03:18:53;;;;;;;46.10;22.90;;;;;;;-5.30;56.95;100443.43;106454;1270;73097;-73
2022/03/12 03:21:23;;;;;;;44.10;23.90;;;;;;;-5.34;57.06;100443.18;105833;1270;62080;-74
2022/03/12 03:23:51;;;;;;;46.20;23.60;;;;;;;-5.35;57.09;100437.79;105372;1270;61581;-74
2022/03/12 03:26:40;;;;;;;44.70;24.00;;;;;;;-5.36;57.17;100440.39;105355;1270;77016;-73
2022/03/12 03:29:08;;;;;;;45.90;24.90;;;;;;;-5.38;57.20;100441.89;104824;1278;69225;-74
2022/03/12 03:31:35;;;;;;;47.80;24.10;;;;;;;-5.43;57.17;100441.96;104726;1280;75111;-73
2022/03/12 03:34:02;;;;;;;43.90;26.10;;;;;;;-5.49;57.24;100444.43;104588;1280;62306;-73
2022/03/12 03:36:31;;;;;;;46.70;25.80;;;;;;;-5.55;57.42;100450.88;104715;1279;62337;-74
2022/03/12 03:38:58;;;;;;;44.60;24.60;;;;;;;-5.62;57.62;100452.64;103706;1280;1002606;-74
2022/03/12 03:41:25;;;;;;;48.90;26.60;;;;;;;-5.68;57.63;100452.33;104670;1278;69426;-73
2022/03/12 03:43:52;;;;;;;47.20;26.20;;;;;;;-5.75;57.63;100454.60;104417;1280;72606;-73
2022/03/12 03:46:21;;;;;;;46.20;24.80;;;;;;;-5.82;57.89;100453.92;103865;1277;1002944;-74
2022/03/12 03:48:51;;;;;;;45.80;24.90;;;;;;;-5.89;58.00;100455.14;104751;1280;62116;-73
2022/03/12 03:51:19;;;;;;;;;;;;;;;-5.96;58.07;100451.57;103884;1280;1003641;-74
2022/03/12 03:53:47;;;;;;;46.70;23.60;;;;;;;-6.03;58.28;100454.87;104579;1278;69375;-73
2022/03/12 03:56:13;;;;;;;42.00;23.60;;;;;;;-6.05;58.44;100459.13;103079;1278;1003411;-72
2022/03/12 03:58:40;;;;;;;38.40;20.00;;;;;;;-6.04;58.81;100458.48;103839;1280;1003791;-73
2022/03/12 04:01:12;;;;;;;45.00;22.70;;;;;;;-6.01;59.13;100459.43;104568;1278;62299;-74
2022/03/12 04:03:48;;;;;;;46.80;24.00;;;;;;;-5.96;59.15;100459.36;104487;1279;76984;-73
2022/03/12 04:06:16;;;;;;;40.60;22.30;;;;;;;-5.91;59.12;100464.95;104754;1270;70564;-73
2022/03/12 04:08:43;;;;;;;44.70;23.50;;;;;;;-5.88;59.20;100466.23;105231;1270;74748;-73
2022/03/12 04:11:21;;;;;;;47.20;22.40;;;;;;;-5.85;59.17;100465.11;105066;1270;61986;-72
2022/03/12 04:13:49;;;;;;;41.10;22.90;;;;;;;-5.82;59.20;100464.83;105471;1270;62034;-73
2022/03/12 04:16:17;;;;;;;40.90;22.30;;;;;;;-5.82;59.19;100465.53;105006;1273;76223;-73
2022/03/12 04:18:46;;;;;;;44.10;22.50;;;;;;;-5.80;59.17;100463.83;104939;1270;70266;-74
2022/03/12 04:21:14;;;;;;;44.20;22.20;;;;;;;-5.81;59.25;100470.23;105625;1270;73297;-73
2022/03/12 04:23:42;;;;;;;42.50;23.20;;;;;;;-5.81;59.25;100472.48;105013;1271;62077;-73
2022/03/12 04:26:10;;;;;;;39.40;21.60;;;;;;;-5.80;59.33;100478.55;105228;1270;62193;-72
2022/03/12 04:28:38;;;;;;;46.00;22.80;;;;;;;-5.78;59.42;100478.26;105210;1270;76197;-73
2022/03/12 04:31:06;;;;;;;44.80;22.80;;;;;;;-5.76;59.44;100480.55;105216;1270;70218;-73
2022/03/12 04:33:33;;;;;;;39.80;22.40;;;;;;;-5.75;59.48;100479.35;105196;1270;73383;-72
2022/03/12 04:36:03;;;;;;;46.20;23.50;;;;;;;-5.78;59.52;100481.89;105232;1270;62143;-73
2022/03/12 04:38:30;;;;;;;45.70;23.80;;;;;;;-5.79;59.58;100482.58;105263;1270;62077;-75
2022/03/12 04:40:57;;;;;;;47.70;25.20;;;;;;;-5.79;59.77;100480.50;105254;1270;77394;-73
2022/03/12 04:43:31;;;;;;;41.20;23.80;;;;;;;-5.78;59.80;100477.39;105232;1270;70227;-73
2022/03/12 04:46:00;;;;;;;47.40;24.40;;;;;;;-5.78;59.95;100474.27;105188;1270;74097;-73
2022/03/12 04:48:28;;;;;;;39.40;22.80;;;;;;;-5.76;59.92;100475.16;105349;1270;62546;-73
2022/03/12 04:50:56;;;;;;;47.80;23.80;;;;;;;-5.75;59.96;100476.41;105469;1270;62096;-75
2022/03/12 04:53:24;;;;;;;51.50;24.50;;;;;;;-5.75;59.84;100477.10;105131;1271;74961;-74
2022/03/12 04:55:51;;;;;;;42.20;23.10;;;;;;;-5.76;59.84;100476.75;105277;1270;69704;-76
2022/03/12 04:58:18;;;;;;;45.00;24.60;;;;;;;-5.77;59.95;100478.63;105253;1270;74500;-73
2022/03/12 05:00:46;;;;;;;46.30;24.40;;;;;;;-5.77;60.10;100483.29;104524;1270;1003152;-73
2022/03/12 05:03:20;;;;;;;43.80;24.10;;;;;;;-5.78;59.93;100480.33;105396;1270;62510;-73
2022/03/12 05:05:50;;;;;;;44.00;24.70;;;;;;;-5.79;59.95;100476.34;105217;1270;76556;-76
2022/03/12 05:08:18;;;;;;;;;;;;;;;-5.78;60.06;100477.55;105223;1270;67576;-75
2022/03/12 05:10:51;;;;;;;47.70;25.10;;;;;;;-5.76;60.07;100475.87;105218;1270;73105;-75
2022/03/12 05:13:27;;;;;;;48.20;27.10;;;;;;;-5.72;60.16;100472.48;105231;1270;62359;-75
2022/03/12 05:15:57;;;;;;;51.70;27.00;;;;;;;-5.71;60.28;100475.81;105261;1270;61963;-74
2022/03/12 05:18:25;;;;;;;49.20;24.90;;;;;;;-5.75;60.23;100474.34;105402;1269;75914;-75
2022/03/12 05:20:52;;;;;;;50.20;26.10;;;;;;;-5.75;60.16;100480.05;105293;1270;69303;-74
2022/03/12 05:23:20;;;;;;;48.60;26.20;;;;;;;-5.73;60.18;100479.05;105218;1270;72821;-74
2022/03/12 05:25:49;;;;;;;49.20;25.90;;;;;;;-5.73;60.17;100478.54;105654;1270;62203;-74
2022/03/12 05:28:23;;;;;;;45.50;25.40;;;;;;;-5.64;60.15;100474.06;105427;1269;61999;-73
2022/03/12 05:30:50;;;;;;;47.30;25.70;;;;;;;-5.34;59.73;100471.77;105169;1270;76992;-72
2022/03/12 05:33:18;;;;;;;49.90;26.70;;;;;;;-5.13;59.46;100469.59;105238;1270;70374;-75
2022/03/12 05:35:46;;;;;;;49.70;27.10;;;;;;;-4.90;59.06;100464.49;105209;1270;73435;-73
2022/03/12 05:38:13;;;;;;;46.10;26.30;;;;;;;-4.69;58.68;100467.66;105096;1270;62098;-75
2022/03/12 05:40:41;;;;;;;43.00;25.20;;;;;;;-4.46;58.53;100467.05;105261;1270;62162;-75
2022/03/12 05:43:12;;;;;;;46.70;27.70;;;;;;;-4.25;58.03;100464.61;105239;1270;74443;-75
2022/03/12 05:45:39;;;;;;;49.90;28.00;;;;;;;-4.08;57.99;100469.41;105227;1270;69523;-74
2022/03/12 05:48:09;;;;;;;50.90;28.50;;;;;;;-3.91;57.77;100468.80;105192;1270;71362;-73
2022/03/12 05:50:36;;;;;;;51.40;28.60;;;;;;;-3.73;57.42;100469.08;105292;1270;61991;-73
2022/03/12 05:53:08;;;;;;;53.10;29.60;;;;;;;-3.59;57.28;100464.92;105385;1270;62076;-74
2022/03/12 05:55:38;;;;;;;47.90;28.60;;;;;;;-3.50;56.94;100457.77;105207;1270;75866;-74
2022/03/12 05:58:07;;;;;;;66.30;37.10;;;;;;;-3.36;56.80;100456.38;105274;1270;69256;-74
2022/03/12 06:00:34;;;;;;;53.00;30.50;;;;;;;-3.46;56.88;100461.80;105251;1270;74257;-76
2022/03/12 06:03:01;;;;;;;48.60;28.30;;;;;;;-3.58;56.78;100460.44;105217;1270;62195;-72
2022/03/12 06:05:29;;;;;;;43.80;26.00;;;;;;;-3.67;56.89;100459.61;105274;1270;62075;-72
2022/03/12 06:07:55;;;;;;;46.50;25.50;;;;;;;-3.74;56.65;100461.06;105259;1269;76931;-74
2022/03/12 06:10:25;;;;;;;45.70;26.10;;;;;;;-3.83;56.62;100463.88;105222;1270;70431;-75
2022/03/12 06:12:56;;;;;;;49.30;27.80;;;;;;;-3.89;56.54;100469.52;105306;1270;73278;-74
2022/03/12 06:15:25;;;;;;;49.40;27.50;;;;;;;-3.94;56.38;100464.58;105209;1270;62054;-74
2022/03/12 06:17:53;;;;;;;49.30;27.50;;;;;;;-3.96;56.55;100462.82;105214;1270;62037;-74
2022/03/12 06:20:21;;;;;;;52.50;28.70;;;;;;;-3.95;56.48;100463.34;105312;1270;76811;-73
2022/03/12 06:22:50;;;;;;;50.70;26.90;;;;;;;-3.95;56.45;100460.57;105208;1270;70182;-74
2022/03/12 06:25:17;;;;;;;55.70;30.30;;;;;;;-3.93;56.43;100461.48;105253;1270;73265;-74
2022/03/12 06:27:49;;;;;;;49.30;29.10;;;;;;;-3.91;56.33;100463.07;105062;1271;62212;-75
2022/03/12 06:30:16;;;;;;;51.60;28.50;;;;;;;-3.88;56.31;100465.37;105029;1270;61975;-73
2022/03/12 06:32:43;;;;;;;50.10;28.10;;;;;;;-3.86;56.31;100461.94;105246;1270;76313;-73
2022/03/12 06:35:12;;;;;;;55.80;29.70;;;;;;;-3.81;56.28;100456.98;105249;1270;69080;-73
2022/03/12 06:37:40;;;;;;;55.60;29.90;;;;;;;-3.76;56.16;100449.06;105291;1270;74487;-76
2022/03/12 06:40:08;;;;;;;56.30;29.80;;;;;;;-3.70;56.08;100453.65;104994;1271;62187;-74
2022/03/12 06:42:36;;;;;;;49.50;29.30;;;;;;;-3.64;55.97;100457.92;104988;1270;62228;-73
2022/03/12 06:45:04;;;;;;;50.50;27.30;;;;;;;-3.58;55.93;100459.04;105213;1270;75734;-76
2022/03/12 06:47:31;;;;;;;49.30;28.00;;;;;;;-3.51;55.61;100453.22;105217;1270;69827;-74
2022/03/12 06:49:59;;;;;;;55.00;28.60;;;;;;;-3.44;55.46;100454.70;105188;1270;73733;-74
2022/03/12 06:52:28;;;;;;;48.90;26.40;;;;;;;-3.39;55.28;100456.17;105268;1270;62003;-74
2022/03/12 06:54:56;;;;;;;48.90;25.50;;;;;;;-3.33;55.14;100458.85;105328;1270;62070;-74
2022/03/12 06:57:23;;;;;;;40.60;23.20;;;;;;;-3.26;54.90;100458.23;105241;1270;76093;-74
2022/03/12 06:59:49;;;;;;;44.50;26.20;;;;;;;-3.18;54.90;100457.47;105279;1270;69216;-73
2022/03/12 07:02:16;;;;;;;47.30;26.80;;;;;;;-3.09;54.74;100460.02;105224;1270;73132;-74
2022/03/12 07:04:42;;;;;;;45.90;25.10;;;;;;;-3.00;54.55;100467.95;105210;1270;62044;-73
2022/03/12 07:07:09;;;;;;;47.30;25.90;;;;;;;-2.92;54.43;100469.08;105251;1269;62096;-74
2022/03/12 07:09:36;;;;;;;43.80;26.20;;;;;;;-2.82;54.28;100464.67;105241;1270;62091;-75
2022/03/12 07:12:03;;;;;;;48.90;26.10;;;;;;;-2.74;54.10;100466.67;105185;1270;68822;-74
2022/03/12 07:14:31;;;;;;;45.50;26.90;;;;;;;-2.67;53.85;100467.26;104972;1271;74174;-73
2022/03/12 07:16:58;;;;;;;49.30;27.10;;;;;;;-2.61;53.74;100467.85;105235;1270;62062;-74
2022/03/12 07:19:24;;;;;;;43.30;26.60;;;;;;;-2.54;53.69;100466.88;105288;1270;62527;-74
2022/03/12 07:21:51;;;;;;;41.60;26.10;;;;;;;-2.47;53.55;100471.64;104976;1273;62185;-73
2022/03/12 07:24:18;;;;;;;44.10;25.20;;;;;;;-2.39;53.53;100468.23;105265;1270;62181;-73
2022/03/12 07:26:44;;;;;;;44.50;25.00;;;;;;;-2.28;53.43;100468.67;105323;1270;73148;-74
2022/03/12 07:29:12;;;;;;;46.50;25.30;;;;;;;-2.18;53.21;100469.98;105049;1273;62068;-74
2022/03/12 07:31:39;;;;;;;37.80;23.30;;;;;;;-2.11;53.07;100470.57;104966;1270;1003558;-74
2022/03/12 07:34:07;;;;;;;39.80;24.10;;;;;;;-2.02;52.91;100469.77;105607;1270;75862;-74
2022/03/12 07:36:34;;;;;;;38.50;23.80;;;;;;;-1.92;52.84;100473.14;105692;1271;67491;-74
2022/03/12 07:39:03;;;;;;;40.00;22.70;;;;;;;-1.80;52.83;100476.20;105204;1270;74218;-74
2022/03/12 07:41:30;;;;;;;44.10;25.00;;;;;;;-1.68;52.41;100475.58;105249;1270;62168;-74
2022/03/12 07:43:58;;;;;;;38.60;22.70;;;;;;;-1.61;52.17;100471.09;105334;1270;62069;-74
2022/03/12 07:46:25;;;;;;;37.60;22.10;;;;;;;-1.53;52.00;100468.00;105204;1272;75963;-73
2022/03/12 07:48:52;;;;;;;35.90;21.80;;;;;;;-1.43;52.14;100465.78;105210;1271;69131;-74
2022/03/12 07:51:18;;;;;;;35.80;21.70;;;;;;;-1.29;52.08;100467.63;105212;1270;74383;-74
2022/03/12 07:53:44;;;;;;;39.10;22.40;;;;;;;-1.17;51.80;100461.22;105234;1270;62111;-74
2022/03/12 07:56:12;;;;;;;37.10;21.40;;;;;;;-1.08;51.30;100461.25;104913;1274;62173;-75
2022/03/12 07:58:39;;;;;;;39.60;22.30;;;;;;;-1.00;50.98;100461.46;105190;1271;75944;-74
2022/03/12 08:01:08;;;;;;;37.70;23.00;;;;;;;-0.91;50.93;100465.33;105231;1270;69330;-74
2022/03/12 08:03:36;;;;;;;37.90;22.70;;;;;;;-0.82;50.78;100463.79;105240;1270;72451;-73
2022/03/12 08:06:06;;;;;;;37.00;21.70;;;;;;;-0.72;50.66;100464.85;105233;1270;62116;-74
2022/03/12 08:08:34;;;;;;;42.40;23.80;;;;;;;-0.63;50.38;100463.14;104979;1271;62094;-74
2022/03/12 08:13:48;;;;;;;35.50;20.40;;;;;;;-0.42;49.81;100455.84;105203;1270;69201;-73
2022/03/12 08:16:15;;;;;;;34.50;23.50;;;;;;;-0.29;49.80;100460.21;105177;1270;73842;-74
2022/03/12 08:18:43;;;;;;;36.80;21.40;;;;;;;-0.17;49.57;100459.88;105204;1270;62269;-74
2022/03/12 08:21:11;;;;;;;38.30;21.20;;;;;;;-0.09;49.16;100462.31;105260;1270;62280;-74
2022/03/12 08:23:38;;;;;;;32.50;19.60;;;;;;;-0.02;49.11;100461.27;105217;1270;75578;-74
2022/03/12 08:26:05;;;;;;;29.20;19.10;;;;;;;0.08;48.65;100460.21;105228;1271;70178;-73
2022/03/12 08:28:35;;;;;;;33.20;21.10;;;;;;;0.19;48.45;100455.66;104945;1272;73336;-74
2022/03/12 08:31:03;;;;;;;32.40;22.10;;;;;;;0.30;48.17;100454.60;105195;1271;62077;-75
2022/03/12 08:33:30;;;;;;;35.40;20.90;;;;;;;0.37;47.89;100452.30;105223;1270;62080;-74
2022/03/12 08:35:57;;;;;;;40.40;23.30;;;;;;;0.48;47.90;100449.66;105205;1270;77442;-74
2022/03/12 08:38:25;;;;;;;39.00;22.80;;;;;;;0.59;47.67;100446.84;105275;1270;69762;-73
2022/03/12 08:40:52;;;;;;;35.50;21.70;;;;;;;0.73;47.84;100440.66;103773;1271;1003921;-76
2022/03/12 08:43:21;;;;;;;38.70;22.60;;;;;;;0.85;47.53;100440.09;105225;1271;62083;-74
2022/03/12 08:45:48;;;;;;;34.40;21.40;;;;;;;0.92;47.14;100436.73;105284;1271;61987;-74
2022/03/12 08:48:16;;;;;;;33.70;21.50;;;;;;;1.02;47.03;100441.94;105234;1271;77208;-75
2022/03/12 08:50:44;;;;;;;32.30;20.70;;;;;;;1.14;46.88;100439.27;105282;1270;69158;-74
2022/03/12 08:53:11;;;;;;;34.40;21.40;;;;;;;1.22;45.81;100439.23;105211;1271;74012;-74
2022/03/12 08:55:39;;;;;;;34.00;18.70;;;;;;;1.27;46.03;100440.95;105206;1271;62630;-75
2022/03/12 08:58:05;;;;;;;30.00;19.00;;;;;;;1.40;45.91;100431.94;105202;1271;62129;-74
2022/03/12 09:00:32;;;;;;;33.40;20.70;;;;;;;1.50;45.43;100431.50;105236;1271;77684;-74
2022/03/12 09:02:59;;;;;;;36.70;21.40;;;;;;;1.57;45.05;100430.41;105154;1271;69272;-75
2022/03/12 09:05:25;;;;;;;34.20;24.50;;;;;;;1.61;45.05;100437.90;105200;1271;73128;-75
2022/03/12 09:07:52;;;;;;;31.30;20.60;;;;;;;1.71;44.95;100431.52;105170;1271;62451;-75
2022/03/12 09:10:20;;;;;;;34.30;22.10;;;;;;;1.86;44.64;100431.23;105005;1271;62467;-75
2022/03/12 09:12:47;;;;;;;30.40;20.10;;;;;;;1.99;44.24;100427.09;105209;1271;75431;-74
2022/03/12 09:15:20;;;;;;;33.30;20.60;;;;;;;2.13;44.09;100425.03;105182;1270;69661;-76
2022/03/12 09:17:47;;;;;;;62.10;44.50;;;;;;;2.27;44.05;100425.23;105440;1271;74545;-74
2022/03/12 09:20:14;;;;;;;142.30;99.30;;;;;;;2.36;43.76;100426.39;105156;1270;62436;-76
2022/03/12 09:22:41;;;;;;;42.80;28.60;;;;;;;2.45;43.79;100425.41;105194;1271;62060;-75
2022/03/12 09:25:12;;;;;;;33.60;22.60;;;;;;;2.58;43.48;100420.19;105238;1270;76086;-74
2022/03/12 09:27:40;;;;;;;34.90;23.20;;;;;;;2.66;43.34;100418.68;105189;1271;69898;-75
2022/03/12 09:30:08;;;;;;;34.00;21.80;;;;;;;2.79;43.55;100419.23;105192;1271;73501;-76
2022/03/12 09:32:35;;;;;;;32.20;19.90;;;;;;;2.91;43.17;100418.38;105201;1271;62120;-75
2022/03/12 09:35:03;;;;;;;34.60;20.10;;;;;;;2.95;42.50;100412.36;105210;1271;62091;-75
2022/03/12 09:37:29;;;;;;;31.50;18.90;;;;;;;2.97;42.07;100409.52;105586;1271;76033;-76
2022/03/12 09:39:56;;;;;;;30.80;19.30;;;;;;;2.97;41.91;100410.56;104978;1274;62176;-75
2022/03/12 09:42:25;;;;;;;31.00;18.90;;;;;;;2.99;41.11;100409.48;105152;1271;62187;-74
2022/03/12 09:44:52;;;;;;;27.70;17.80;;;;;;;3.02;41.58;100406.11;105298;1270;62226;-75
2022/03/12 09:47:18;;;;;;;29.20;17.70;;;;;;;3.13;41.64;100403.50;105247;1271;61359;-74
2022/03/12 09:49:45;;;;;;;24.70;15.80;;;;;;;3.29;41.50;100402.23;105196;1271;61932;-75
2022/03/12 09:52:12;;;;;;;23.50;15.20;;;;;;;3.39;41.09;100403.66;105245;1270;62125;-74
2022/03/12 09:54:38;;;;;;;25.90;14.80;;;;;;;3.49;40.56;100397.90;105049;1272;73253;-75
2022/03/12 09:57:05;;;;;;;28.20;16.30;;;;;;;3.55;40.19;100397.09;105213;1271;62200;-74
2022/03/12 09:59:31;;;;;;;23.60;15.60;;;;;;;3.61;39.94;100392.80;105247;1271;62085;-75
2022/03/12 10:02:00;;;;;;;32.90;23.10;;;;;;;3.67;39.88;100391.44;105256;1271;61983;-74
2022/03/12 10:04:28;;;;;;;21.70;14.10;;;;;;;3.79;39.66;100386.17;105237;1270;69242;-75
2022/03/12 10:06:56;;;;;;;20.60;12.90;;;;;;;3.94;39.46;100381.84;105415;1270;72851;-74
2022/03/12 10:09:23;;;;;;;20.00;13.80;;;;;;;4.07;39.01;100379.16;105322;1271;62125;-73
2022/03/12 10:11:51;;;;;;;19.10;11.90;;;;;;;4.14;38.92;100372.52;105228;1271;62081;-75
2022/03/12 10:14:19;;;;;;;16.10;13.00;;;;;;;4.27;38.53;100370.88;105070;1272;76114;-75
2022/03/12 10:16:46;;;;;;;15.50;10.80;;;;;;;4.39;38.52;100370.46;105473;1270;68714;-74
2022/03/12 10:19:12;;;;;;;14.20;10.90;;;;;;;4.48;37.96;100367.67;105216;1271;73593;-74
2022/03/12 10:21:42;;;;;;;15.40;10.50;;;;;;;4.49;37.54;100362.36;105192;1271;62047;-74
2022/03/12 10:24:10;;;;;;;13.50;10.00;;;;;;;4.49;37.34;100358.67;105335;1270;62503;-73
2022/03/12 10:26:37;;;;;;;12.50;9.40;;;;;;;4.49;37.15;100355.13;105554;1270;75494;-74
2022/03/12 10:29:05;;;;;;;14.70;9.50;;;;;;;4.55;37.00;100351.31;105554;1271;70386;-75
2022/03/12 10:31:32;;;;;;;13.50;10.00;;;;;;;4.65;37.01;100347.23;105517;1274;73115;-74
2022/03/12 10:34:42;;;;;;;21.60;15.40;;;;;;;4.75;36.62;100338.76;105475;1270;62079;-74
2022/03/12 10:37:32;;;;;;;13.00;8.70;;;;;;;4.83;36.26;100337.86;105696;1276;62007;-74
2022/03/12 10:40:10;;;;;;;10.80;8.00;;;;;;;4.85;35.71;100333.44;106267;1278;76201;-74
2022/03/12 10:42:50;;;;;;;12.10;8.20;;;;;;;4.87;35.66;100331.82;105525;1277;69830;-74
2022/03/12 10:45:27;;;;;;;25.00;22.70;;;;;;;4.93;35.65;100325.49;107510;1276;73401;-74
2022/03/12 10:47:56;;;;;;;10.80;9.00;;;;;;;5.02;34.70;100322.13;106931;1277;62252;-73
2022/03/12 10:50:37;;;;;;;13.30;10.60;;;;;;;5.02;34.88;100322.48;106926;1276;61952;-73
2022/03/12 10:53:06;;;;;;;10.70;8.50;;;;;;;5.09;34.90;100318.26;106381;1277;75403;-74
2022/03/12 10:55:34;;;;;;;12.00;8.30;;;;;;;5.18;34.95;100316.11;104863;1277;68582;-74
2022/03/12 10:58:37;;;;;;;11.50;7.70;;;;;;;5.29;34.31;100316.56;104815;1277;72697;-74
2022/03/12 11:01:03;;;;;;;11.10;7.80;;;;;;;5.28;34.27;100312.35;104427;1283;62206;-73
2022/03/12 11:03:35;;;;;;;10.70;7.80;;;;;;;5.35;34.30;100306.73;104387;1283;62076;-75
2022/03/12 11:06:04;;;;;;;11.20;8.30;;;;;;;5.45;33.99;100299.23;104391;1283;74150;-74
2022/03/12 11:08:36;;;;;;;11.00;8.50;;;;;;;5.51;33.70;100300.71;104585;1281;69886;-73
2022/03/12 11:11:13;;;;;;;8.40;6.90;;;;;;;5.57;33.50;100301.95;104527;1281;73343;-75
2022/03/12 11:13:43;;;;;;;10.40;6.90;;;;;;;5.60;33.29;100296.23;104509;1281;62094;-73